createdAt,value
2023-04-23T00:00:13.148Z,16.60
2023-04-23T00:00:48.143Z,16.60
2023-04-23T00:01:22.193Z,16.60
2023-04-23T00:01:57.258Z,16.60
2023-04-23T00:02:33.211Z,16.60
2023-04-23T00:03:10.218Z,16.50
2023-04-23T00:03:44.338Z,16.60
2023-04-23T00:04:19.140Z,16.50
2023-04-23T00:04:52.802Z,16.50
2023-04-23T00:05:27.963Z,16.50
2023-04-23T00:06:05.566Z,16.50
2023-04-23T00:06:38.381Z,16.40
2023-04-23T00:07:10.659Z,16.40
2023-04-23T00:07:43.973Z,16.40
2023-04-23T00:08:18.392Z,16.30
2023-04-23T00:08:54.031Z,16.30
2023-04-23T00:09:28.887Z,16.30
2023-04-23T00:10:03.227Z,16.20
2023-04-23T00:10:36.620Z,16.20
2023-04-23T00:11:09.897Z,16.20
2023-04-23T00:11:49.309Z,16.20
2023-04-23T00:12:22.643Z,16.20
2023-04-23T00:12:54.849Z,16.20
2023-04-23T00:13:27.187Z,16.20
2023-04-23T00:14:00.451Z,16.20
2023-04-23T00:14:32.630Z,16.20
2023-04-23T00:15:06.790Z,16.20
2023-04-23T00:15:39.917Z,16.20
2023-04-23T00:16:13.194Z,16.20
2023-04-23T00:16:45.918Z,16.20
2023-04-23T00:17:19.593Z,16.20
2023-04-23T00:17:51.475Z,16.20
2023-04-23T00:18:23.384Z,16.20
2023-04-23T00:18:56.132Z,16.20
2023-04-23T00:19:27.983Z,16.20
2023-04-23T00:20:00.052Z,16.20
2023-04-23T00:20:34.099Z,16.20
2023-04-23T00:21:06.160Z,16.20
2023-04-23T00:21:38.014Z,16.20
2023-04-23T00:22:09.866Z,16.30
2023-04-23T00:22:42.823Z,16.30
2023-04-23T00:23:14.639Z,16.20
2023-04-23T00:23:46.697Z,16.20
2023-04-23T00:24:19.526Z,16.20
2023-04-23T00:24:51.419Z,16.10
2023-04-23T00:25:23.216Z,16.10
2023-04-23T00:25:55.977Z,16.10
2023-04-23T00:26:27.830Z,16.10
2023-04-23T00:27:01.438Z,16.10
2023-04-23T00:27:33.263Z,16.20
2023-04-23T00:28:06.327Z,16.20
2023-04-23T00:28:38.325Z,16.10
2023-04-23T00:29:10.121Z,16.20
2023-04-23T00:29:43.221Z,16.20
2023-04-23T00:30:16.608Z,16.20
2023-04-23T00:30:48.526Z,16.20
2023-04-23T00:31:22.465Z,16.20
2023-04-23T00:31:54.328Z,16.20
2023-04-23T00:32:26.235Z,16.20
2023-04-23T00:32:58.100Z,16.20
2023-04-23T00:33:31.040Z,16.20
2023-04-23T00:34:03.138Z,16.10
2023-04-23T00:34:34.984Z,16.10
2023-04-23T00:35:08.783Z,16.20
2023-04-23T00:35:40.758Z,16.20
2023-04-23T00:36:12.548Z,16.10
2023-04-23T00:36:45.327Z,16.20
2023-04-23T00:37:17.187Z,16.20
2023-04-23T00:37:49.029Z,16.20
2023-04-23T00:38:21.914Z,16.20
2023-04-23T00:38:53.734Z,16.20
2023-04-23T00:39:25.631Z,16.20
2023-04-23T00:39:57.535Z,16.20
2023-04-23T00:40:30.395Z,16.30
2023-04-23T00:41:02.321Z,16.30
2023-04-23T00:41:34.616Z,16.30
2023-04-23T00:42:12.246Z,16.30
2023-04-23T00:42:45.675Z,16.30
2023-04-23T00:43:17.662Z,16.30
2023-04-23T00:43:52.712Z,16.30
2023-04-23T00:44:24.529Z,16.30
2023-04-23T00:44:57.671Z,16.30
2023-04-23T00:45:29.554Z,16.30
2023-04-23T00:46:02.647Z,16.30
2023-04-23T00:46:35.519Z,16.30
2023-04-23T00:47:07.924Z,16.30
2023-04-23T00:47:41.128Z,16.30
2023-04-23T00:48:14.303Z,16.30
2023-04-23T00:48:47.351Z,16.30
2023-04-23T00:49:19.628Z,16.40
2023-04-23T00:49:53.123Z,16.40
2023-04-23T00:50:26.194Z,16.30
2023-04-23T00:50:59.887Z,16.40
2023-04-23T00:51:32.096Z,16.40
2023-04-23T00:52:05.826Z,16.40
2023-04-23T00:52:39.068Z,16.40
2023-04-23T00:53:11.896Z,16.40
2023-04-23T00:53:43.729Z,16.40
2023-04-23T00:54:15.570Z,16.50
2023-04-23T00:54:47.447Z,16.50
2023-04-23T00:55:21.062Z,16.50
2023-04-23T00:55:53.276Z,16.50
2023-04-23T00:56:26.590Z,16.50
2023-04-23T00:57:00.424Z,16.50
2023-04-23T00:57:33.998Z,16.50
2023-04-23T00:58:06.682Z,16.50
2023-04-23T00:58:40.440Z,16.50
2023-04-23T00:59:12.312Z,16.50
2023-04-23T00:59:44.756Z,16.50
2023-04-23T01:00:18.716Z,16.50
2023-04-23T01:00:52.461Z,16.50
2023-04-23T01:01:25.976Z,16.50
2023-04-23T01:01:59.567Z,16.50
2023-04-23T01:02:32.053Z,16.50
2023-04-23T01:03:05.094Z,16.50
2023-04-23T01:03:39.287Z,16.50
2023-04-23T01:04:13.757Z,16.50
2023-04-23T01:04:45.673Z,16.50
2023-04-23T01:05:19.447Z,16.50
2023-04-23T01:05:52.814Z,16.50
2023-04-23T01:06:25.230Z,16.50
2023-04-23T01:06:59.055Z,16.50
2023-04-23T01:07:31.860Z,16.50
2023-04-23T01:08:04.838Z,16.50
2023-04-23T01:08:37.352Z,16.50
2023-04-23T01:09:09.861Z,16.50
2023-04-23T01:09:42.893Z,16.50
2023-04-23T01:10:15.055Z,16.50
2023-04-23T01:10:48.326Z,16.50
2023-04-23T01:11:22.274Z,16.50
2023-04-23T01:11:54.268Z,16.50
2023-04-23T01:12:26.566Z,16.50
2023-04-23T01:13:01.248Z,16.40
2023-04-23T01:13:33.294Z,16.40
2023-04-23T01:14:05.790Z,16.40
2023-04-23T01:14:39.427Z,16.30
2023-04-23T01:15:11.661Z,16.30
2023-04-23T01:15:44.798Z,16.30
2023-04-23T01:16:17.750Z,16.30
2023-04-23T01:16:50.196Z,16.30
2023-04-23T01:17:22.766Z,16.30
2023-04-23T01:17:57.146Z,16.30
2023-04-23T01:18:29.730Z,16.20
2023-04-23T01:19:02.204Z,16.20
2023-04-23T01:19:35.035Z,16.20
2023-04-23T01:20:08.417Z,16.20
2023-04-23T01:20:40.317Z,16.20
2023-04-23T01:21:15.004Z,16.30
2023-04-23T01:21:49.664Z,16.20
2023-04-23T01:22:23.071Z,16.20
2023-04-23T01:22:56.159Z,16.30
2023-04-23T01:23:28.067Z,16.30
2023-04-23T01:24:00.140Z,16.30
2023-04-23T01:24:32.287Z,16.30
2023-04-23T01:25:06.044Z,16.30
2023-04-23T01:25:38.034Z,16.30
2023-04-23T01:26:10.786Z,16.30
2023-04-23T01:26:43.732Z,16.30
2023-04-23T01:27:16.092Z,16.30
2023-04-23T01:27:48.339Z,16.30
2023-04-23T01:28:20.587Z,16.30
2023-04-23T01:28:54.168Z,16.30
2023-04-23T01:29:26.476Z,16.30
2023-04-23T01:29:58.821Z,16.30
2023-04-23T01:30:31.924Z,16.30
2023-04-23T01:31:04.089Z,16.40
2023-04-23T01:31:36.606Z,16.40
2023-04-23T01:32:09.620Z,16.40
2023-04-23T01:32:41.861Z,16.30
2023-04-23T01:33:14.961Z,16.40
2023-04-23T01:33:47.901Z,16.30
2023-04-23T01:34:20.965Z,16.40
2023-04-23T01:34:54.632Z,16.30
2023-04-23T01:35:26.822Z,16.30
2023-04-23T01:36:00.888Z,16.30
2023-04-23T01:36:33.968Z,16.30
2023-04-23T01:37:06.060Z,16.30
2023-04-23T01:37:40.304Z,16.30
2023-04-23T01:38:15.673Z,16.30
2023-04-23T01:38:47.540Z,16.30
2023-04-23T01:39:19.632Z,16.40
2023-04-23T01:39:52.893Z,16.40
2023-04-23T01:40:24.765Z,16.40
2023-04-23T01:40:56.583Z,16.30
2023-04-23T01:41:29.512Z,16.40
2023-04-23T01:42:02.120Z,16.40
2023-04-23T01:42:33.996Z,16.40
2023-04-23T01:43:08.619Z,16.40
2023-04-23T01:43:41.833Z,16.40
2023-04-23T01:44:13.734Z,16.40
2023-04-23T01:44:46.564Z,16.30
2023-04-23T01:45:19.948Z,16.30
2023-04-23T01:45:52.682Z,16.30
2023-04-23T01:46:25.043Z,16.30
2023-04-23T01:46:58.514Z,16.30
2023-04-23T01:47:30.446Z,16.30
2023-04-23T01:48:02.693Z,16.30
2023-04-23T01:48:35.618Z,16.40
2023-04-23T01:49:08.127Z,16.40
2023-04-23T01:49:40.635Z,16.40
2023-04-23T01:50:13.672Z,16.30
2023-04-23T01:50:45.526Z,16.40
2023-04-23T01:51:17.597Z,16.40
2023-04-23T01:51:50.450Z,16.40
2023-04-23T01:52:22.262Z,16.40
2023-04-23T01:52:55.483Z,16.40
2023-04-23T01:53:28.316Z,16.40
2023-04-23T01:54:00.172Z,16.40
2023-04-23T01:54:32.094Z,16.40
2023-04-23T01:55:05.389Z,16.40
2023-04-23T01:55:38.486Z,16.40
2023-04-23T01:56:10.892Z,16.40
2023-04-23T01:56:42.696Z,16.40
2023-04-23T01:57:15.601Z,16.40
2023-04-23T01:57:47.522Z,16.40
2023-04-23T01:58:19.448Z,16.40
2023-04-23T01:58:52.247Z,16.40
2023-04-23T01:59:24.071Z,16.40
2023-04-23T02:00:01.097Z,16.40
2023-04-23T02:00:33.891Z,16.30
2023-04-23T02:01:05.941Z,16.40
2023-04-23T02:01:45.524Z,16.30
2023-04-23T02:02:17.476Z,16.40
2023-04-23T02:02:51.569Z,16.40
2023-04-23T02:03:23.678Z,16.40
2023-04-23T02:03:55.662Z,16.40
2023-04-23T02:04:28.697Z,16.30
2023-04-23T02:05:04.234Z,16.40
2023-04-23T02:05:36.511Z,16.30
2023-04-23T02:06:10.009Z,16.40
2023-04-23T02:06:43.217Z,16.40
2023-04-23T02:07:15.166Z,16.30
2023-04-23T02:07:49.253Z,16.30
2023-04-23T02:08:22.704Z,16.40
2023-04-23T02:08:54.531Z,16.30
2023-04-23T02:09:27.338Z,16.30
2023-04-23T02:09:59.337Z,16.30
2023-04-23T02:10:31.748Z,16.30
2023-04-23T02:11:04.734Z,16.30
2023-04-23T02:11:36.572Z,16.30
2023-04-23T02:12:08.501Z,16.30
2023-04-23T02:12:41.109Z,16.40
2023-04-23T02:13:14.568Z,16.40
2023-04-23T02:13:46.404Z,16.40
2023-04-23T02:14:18.243Z,16.40
2023-04-23T02:14:50.800Z,16.40
2023-04-23T02:15:23.602Z,16.40
2023-04-23T02:15:55.463Z,16.40
2023-04-23T02:16:28.343Z,16.40
2023-04-23T02:17:01.257Z,16.40
2023-04-23T02:17:33.243Z,16.40
2023-04-23T02:18:05.720Z,16.40
2023-04-23T02:18:38.520Z,16.40
2023-04-23T02:19:10.499Z,16.30
2023-04-23T02:19:42.291Z,16.30
2023-04-23T02:20:15.095Z,16.30
2023-04-23T02:20:47.032Z,16.30
2023-04-23T02:21:18.822Z,16.30
2023-04-23T02:21:51.629Z,16.30
2023-04-23T02:22:25.137Z,16.30
2023-04-23T02:22:57.013Z,16.30
2023-04-23T02:23:30.496Z,16.30
2023-04-23T02:24:05.172Z,16.30
2023-04-23T02:24:38.712Z,16.30
2023-04-23T02:25:11.206Z,16.30
2023-04-23T02:25:44.166Z,16.30
2023-04-23T02:26:15.951Z,16.30
2023-04-23T02:26:48.773Z,16.30
2023-04-23T02:27:21.837Z,16.30
2023-04-23T02:27:53.603Z,16.20
2023-04-23T02:28:25.379Z,16.30
2023-04-23T02:28:58.129Z,16.30
2023-04-23T02:29:29.905Z,16.20
2023-04-23T02:30:01.929Z,16.30
2023-04-23T02:30:33.915Z,16.20
2023-04-23T02:31:06.813Z,16.20
2023-04-23T02:31:38.893Z,16.20
2023-04-23T02:32:11.126Z,16.20
2023-04-23T02:32:44.054Z,16.20
2023-04-23T02:33:16.553Z,16.20
2023-04-23T02:33:48.793Z,16.20
2023-04-23T02:34:21.604Z,16.20
2023-04-23T02:34:53.528Z,16.20
2023-04-23T02:35:25.806Z,16.20
2023-04-23T02:35:57.645Z,16.20
2023-04-23T02:36:32.356Z,16.20
2023-04-23T02:37:04.943Z,16.20
2023-04-23T02:37:37.388Z,16.20
2023-04-23T02:38:09.264Z,16.20
2023-04-23T02:38:44.809Z,16.10
2023-04-23T02:39:17.046Z,16.20
2023-04-23T02:39:48.857Z,16.10
2023-04-23T02:40:21.860Z,16.10
2023-04-23T02:40:53.658Z,16.10
2023-04-23T02:41:25.544Z,16.10
2023-04-23T02:41:58.282Z,16.00
2023-04-23T02:42:31.042Z,16.00
2023-04-23T02:43:02.960Z,16.10
2023-04-23T02:43:34.760Z,16.10
2023-04-23T02:44:07.536Z,16.10
2023-04-23T02:44:39.534Z,16.10
2023-04-23T02:45:12.045Z,16.10
2023-04-23T02:45:45.204Z,16.10
2023-04-23T02:46:17.074Z,16.10
2023-04-23T02:46:48.958Z,16.10
2023-04-23T02:47:20.813Z,16.10
2023-04-23T02:47:54.309Z,16.10
2023-04-23T02:48:27.210Z,16.10
2023-04-23T02:48:59.075Z,16.10
2023-04-23T02:49:31.830Z,16.10
2023-04-23T02:50:06.080Z,16.10
2023-04-23T02:50:39.031Z,16.10
2023-04-23T02:51:14.303Z,16.10
2023-04-23T02:51:46.176Z,16.10
2023-04-23T02:52:18.098Z,16.10
2023-04-23T02:52:50.845Z,16.10
2023-04-23T02:53:22.619Z,16.10
2023-04-23T02:53:55.778Z,16.10
2023-04-23T02:54:27.597Z,16.10
2023-04-23T02:55:01.751Z,16.10
2023-04-23T02:55:33.568Z,16.10
2023-04-23T02:56:05.684Z,16.10
2023-04-23T02:56:38.581Z,16.10
2023-04-23T02:57:10.513Z,16.10
2023-04-23T02:57:42.464Z,16.10
2023-04-23T02:58:15.244Z,16.10
2023-04-23T02:58:47.059Z,16.10
2023-04-23T02:59:18.850Z,16.10
2023-04-23T02:59:51.711Z,16.00
2023-04-23T03:00:23.605Z,16.00
2023-04-23T03:00:55.918Z,16.00
2023-04-23T03:01:28.771Z,16.00
2023-04-23T03:02:00.961Z,16.00
2023-04-23T03:02:33.095Z,16.00
2023-04-23T03:03:06.296Z,16.00
2023-04-23T03:03:38.668Z,16.00
2023-04-23T03:04:10.941Z,16.00
2023-04-23T03:04:43.931Z,15.90
2023-04-23T03:05:16.121Z,15.90
2023-04-23T03:05:48.201Z,15.90
2023-04-23T03:06:20.172Z,15.90
2023-04-23T03:06:52.961Z,15.90
2023-04-23T03:07:24.746Z,15.90
2023-04-23T03:07:56.573Z,15.90
2023-04-23T03:08:28.648Z,15.90
2023-04-23T03:09:03.013Z,16.00
2023-04-23T03:09:34.820Z,16.00
2023-04-23T03:10:08.206Z,15.90
2023-04-23T03:10:41.004Z,15.90
2023-04-23T03:11:12.830Z,16.00
2023-04-23T03:11:44.715Z,15.90
2023-04-23T03:12:18.182Z,15.90
2023-04-23T03:12:49.999Z,15.90
2023-04-23T03:13:21.860Z,15.90
2023-04-23T03:13:53.721Z,16.00
2023-04-23T03:14:26.535Z,15.90
2023-04-23T03:14:58.373Z,15.90
2023-04-23T03:15:30.422Z,15.90
2023-04-23T03:16:03.289Z,15.80
2023-04-23T03:16:35.306Z,15.80
2023-04-23T03:17:07.177Z,15.80
2023-04-23T03:17:39.093Z,15.80
2023-04-23T03:18:12.007Z,15.80
2023-04-23T03:18:43.864Z,15.70
2023-04-23T03:19:15.752Z,15.80
2023-04-23T03:19:48.713Z,15.80
2023-04-23T03:20:20.599Z,15.80
2023-04-23T03:20:52.405Z,15.80
2023-04-23T03:21:24.247Z,15.80
2023-04-23T03:21:57.060Z,15.80
2023-04-23T03:22:28.901Z,15.80
2023-04-23T03:23:00.841Z,15.80
2023-04-23T03:23:33.804Z,15.80
2023-04-23T03:24:07.844Z,15.80
2023-04-23T03:24:39.934Z,15.70
2023-04-23T03:25:12.441Z,15.70
2023-04-23T03:25:45.258Z,15.70
2023-04-23T03:26:17.118Z,15.70
2023-04-23T03:26:49.020Z,15.70
2023-04-23T03:27:21.831Z,15.60
2023-04-23T03:27:53.951Z,15.60
2023-04-23T03:28:25.827Z,15.60
2023-04-23T03:28:58.636Z,15.50
2023-04-23T03:29:30.519Z,15.50
2023-04-23T03:30:02.365Z,15.50
2023-04-23T03:30:35.497Z,15.40
2023-04-23T03:31:07.383Z,15.40
2023-04-23T03:31:39.264Z,15.40
2023-04-23T03:32:11.128Z,15.40
2023-04-23T03:32:43.913Z,15.30
2023-04-23T03:33:15.932Z,15.30
2023-04-23T03:33:47.759Z,15.30
2023-04-23T03:34:19.578Z,15.30
2023-04-23T03:34:52.420Z,15.30
2023-04-23T03:35:24.995Z,15.30
2023-04-23T03:35:56.856Z,15.30
2023-04-23T03:36:29.704Z,15.30
2023-04-23T03:37:01.543Z,15.20
2023-04-23T03:37:33.444Z,15.20
2023-04-23T03:38:06.307Z,15.20
2023-04-23T03:38:38.705Z,15.20
2023-04-23T03:39:11.985Z,15.20
2023-04-23T03:39:44.824Z,15.20
2023-04-23T03:40:16.796Z,15.20
2023-04-23T03:40:48.792Z,15.20
2023-04-23T03:41:21.640Z,15.20
2023-04-23T03:41:53.492Z,15.20
2023-04-23T03:42:25.327Z,15.20
2023-04-23T03:42:58.765Z,15.30
2023-04-23T03:43:30.741Z,15.30
2023-04-23T03:44:02.826Z,15.30
2023-04-23T03:44:35.646Z,15.30
2023-04-23T03:45:08.804Z,15.30
2023-04-23T03:45:40.633Z,15.30
2023-04-23T03:46:13.496Z,15.40
2023-04-23T03:46:45.363Z,15.40
2023-04-23T03:47:17.182Z,15.40
2023-04-23T03:47:50.118Z,15.30
2023-04-23T03:48:21.954Z,15.40
2023-04-23T03:48:53.799Z,15.40
2023-04-23T03:49:27.786Z,15.40
2023-04-23T03:49:59.586Z,15.40
2023-04-23T03:50:34.281Z,15.40
2023-04-23T03:51:07.301Z,15.40
2023-04-23T03:51:39.162Z,15.40
2023-04-23T03:52:10.993Z,15.40
2023-04-23T03:52:44.100Z,15.40
2023-04-23T03:53:17.629Z,15.40
2023-04-23T03:53:49.700Z,15.50
2023-04-23T03:54:25.694Z,15.50
2023-04-23T03:54:57.834Z,15.50
2023-04-23T03:55:29.762Z,15.40
2023-04-23T03:56:02.573Z,15.40
2023-04-23T03:56:34.399Z,15.40
2023-04-23T03:57:06.537Z,15.40
2023-04-23T03:57:39.500Z,15.40
2023-04-23T03:58:11.905Z,15.40
2023-04-23T03:58:43.732Z,15.40
2023-04-23T03:59:16.557Z,15.40
2023-04-23T03:59:48.387Z,15.40
2023-04-23T04:00:20.668Z,15.40
2023-04-23T04:00:54.324Z,15.50
2023-04-23T04:01:26.322Z,15.50
2023-04-23T04:01:58.405Z,15.40
2023-04-23T04:02:31.398Z,15.50
2023-04-23T04:03:04.286Z,15.50
2023-04-23T04:03:36.595Z,15.50
2023-04-23T04:04:08.831Z,15.50
2023-04-23T04:04:43.180Z,15.50
2023-04-23T04:05:16.020Z,15.50
2023-04-23T04:05:48.234Z,15.50
2023-04-23T04:06:21.141Z,15.50
2023-04-23T04:06:52.970Z,15.50
2023-04-23T04:07:24.832Z,15.50
2023-04-23T04:07:57.652Z,15.50
2023-04-23T04:08:29.706Z,15.50
2023-04-23T04:09:01.783Z,15.40
2023-04-23T04:09:35.939Z,15.50
2023-04-23T04:10:08.368Z,15.50
2023-04-23T04:10:40.905Z,15.40
2023-04-23T04:11:13.766Z,15.40
2023-04-23T04:11:45.640Z,15.50
2023-04-23T04:12:17.531Z,15.50
2023-04-23T04:12:50.350Z,15.40
2023-04-23T04:13:22.490Z,15.50
2023-04-23T04:13:54.339Z,15.40
2023-04-23T04:14:26.183Z,15.40
2023-04-23T04:14:59.080Z,15.40
2023-04-23T04:15:32.276Z,15.40
2023-04-23T04:16:04.629Z,15.40
2023-04-23T04:16:36.596Z,15.40
2023-04-23T04:17:09.450Z,15.30
2023-04-23T04:17:41.330Z,15.30
2023-04-23T04:18:13.256Z,15.30
2023-04-23T04:18:45.212Z,15.30
2023-04-23T04:19:18.023Z,15.30
2023-04-23T04:19:49.856Z,15.30
2023-04-23T04:20:21.697Z,15.30
2023-04-23T04:20:55.058Z,15.30
2023-04-23T04:21:28.184Z,15.30
2023-04-23T04:22:02.442Z,15.30
2023-04-23T04:22:35.413Z,15.30
2023-04-23T04:23:07.235Z,15.20
2023-04-23T04:23:39.859Z,15.20
2023-04-23T04:24:12.684Z,15.20
2023-04-23T04:24:47.402Z,15.20
2023-04-23T04:25:22.108Z,15.20
2023-04-23T04:25:56.404Z,15.10
2023-04-23T04:26:28.638Z,15.10
2023-04-23T04:27:01.624Z,15.10
2023-04-23T04:27:34.492Z,15.00
2023-04-23T04:28:07.916Z,15.00
2023-04-23T04:28:40.847Z,14.90
2023-04-23T04:29:12.662Z,14.90
2023-04-23T04:29:44.531Z,14.90
2023-04-23T04:30:17.452Z,14.90
2023-04-23T04:30:50.188Z,14.70
2023-04-23T04:31:22.353Z,14.70
2023-04-23T04:31:54.642Z,14.70
2023-04-23T04:32:27.575Z,14.70
2023-04-23T04:32:59.929Z,14.60
2023-04-23T04:33:32.875Z,14.60
2023-04-23T04:34:07.299Z,14.60
2023-04-23T04:34:39.921Z,14.60
2023-04-23T04:35:14.123Z,14.60
2023-04-23T04:35:48.841Z,14.70
2023-04-23T04:36:20.786Z,14.60
2023-04-23T04:36:53.809Z,14.60
2023-04-23T04:37:26.375Z,14.60
2023-04-23T04:37:59.938Z,14.50
2023-04-23T04:38:31.815Z,14.50
2023-04-23T04:39:04.628Z,14.40
2023-04-23T04:39:36.454Z,14.40
2023-04-23T04:40:12.537Z,14.40
2023-04-23T04:40:44.480Z,14.40
2023-04-23T04:41:16.363Z,14.30
2023-04-23T04:41:48.419Z,14.30
2023-04-23T04:42:21.392Z,14.20
2023-04-23T04:42:55.045Z,14.20
2023-04-23T04:43:27.028Z,14.10
2023-04-23T04:44:00.071Z,14.10
2023-04-23T04:44:32.173Z,14.10
2023-04-23T04:45:04.864Z,14.00
2023-04-23T04:45:37.736Z,14.00
2023-04-23T04:46:11.714Z,14.00
2023-04-23T04:46:43.640Z,13.90
2023-04-23T04:47:16.319Z,13.90
2023-04-23T04:47:49.292Z,13.80
2023-04-23T04:48:21.727Z,13.80
2023-04-23T04:48:54.100Z,13.80
2023-04-23T04:49:26.988Z,13.80
2023-04-23T04:50:00.371Z,13.70
2023-04-23T04:50:32.287Z,13.70
2023-04-23T04:51:05.465Z,13.70
2023-04-23T04:51:37.990Z,13.70
2023-04-23T04:52:09.832Z,13.70
2023-04-23T04:52:42.695Z,13.70
2023-04-23T04:53:14.684Z,13.60
2023-04-23T04:53:46.548Z,13.60
2023-04-23T04:54:19.426Z,13.60
2023-04-23T04:54:51.408Z,13.60
2023-04-23T04:55:24.628Z,13.60
2023-04-23T04:55:57.508Z,13.60
2023-04-23T04:56:29.661Z,13.60
2023-04-23T04:57:02.276Z,13.60
2023-04-23T04:57:35.235Z,13.50
2023-04-23T04:58:07.124Z,13.50
2023-04-23T04:58:38.971Z,13.50
2023-04-23T04:59:11.833Z,13.30
2023-04-23T04:59:43.968Z,13.40
2023-04-23T05:00:24.236Z,13.40
2023-04-23T05:00:57.254Z,13.30
2023-04-23T05:01:29.704Z,13.30
2023-04-23T05:02:01.868Z,13.30
2023-04-23T05:02:34.861Z,13.30
2023-04-23T05:03:07.661Z,13.40
2023-04-23T05:03:39.849Z,13.40
2023-04-23T05:04:12.980Z,13.40
2023-04-23T05:04:44.996Z,13.40
2023-04-23T05:05:17.318Z,13.40
2023-04-23T05:05:50.172Z,13.40
2023-04-23T05:06:22.156Z,13.40
2023-04-23T05:06:54.040Z,13.40
2023-04-23T05:07:27.056Z,13.40
2023-04-23T05:07:59.340Z,13.50
2023-04-23T05:08:31.542Z,13.50
2023-04-23T05:09:05.048Z,13.50
2023-04-23T05:09:36.901Z,13.50
2023-04-23T05:10:09.589Z,13.50
2023-04-23T05:10:43.988Z,13.60
2023-04-23T05:11:16.977Z,13.60
2023-04-23T05:11:49.014Z,13.50
2023-04-23T05:12:21.853Z,13.50
2023-04-23T05:12:53.705Z,13.40
2023-04-23T05:13:25.601Z,13.40
2023-04-23T05:13:58.458Z,13.40
2023-04-23T05:14:30.339Z,13.40
2023-04-23T05:15:02.316Z,13.40
2023-04-23T05:15:35.170Z,13.40
2023-04-23T05:16:07.126Z,13.40
2023-04-23T05:16:39.004Z,13.30
2023-04-23T05:17:11.908Z,13.30
2023-04-23T05:17:44.360Z,13.30
2023-04-23T05:18:16.268Z,13.30
2023-04-23T05:18:49.130Z,13.20
2023-04-23T05:19:20.984Z,13.20
2023-04-23T05:19:52.855Z,13.20
2023-04-23T05:20:25.958Z,13.20
2023-04-23T05:20:57.974Z,13.10
2023-04-23T05:21:30.012Z,13.20
2023-04-23T05:22:03.748Z,13.20
2023-04-23T05:22:35.752Z,13.20
2023-04-23T05:23:07.637Z,13.20
2023-04-23T05:23:40.526Z,13.20
2023-04-23T05:24:12.433Z,13.20
2023-04-23T05:24:45.312Z,13.30
2023-04-23T05:25:18.312Z,13.20
2023-04-23T05:25:54.329Z,13.20
2023-04-23T05:26:26.453Z,13.20
2023-04-23T05:26:59.295Z,13.20
2023-04-23T05:27:31.110Z,13.30
2023-04-23T05:28:02.957Z,13.20
2023-04-23T05:28:35.794Z,13.20
2023-04-23T05:29:07.692Z,13.20
2023-04-23T05:29:39.522Z,13.20
2023-04-23T05:30:12.825Z,13.20
2023-04-23T05:30:44.795Z,13.20
2023-04-23T05:31:17.807Z,13.10
2023-04-23T05:31:49.701Z,13.10
2023-04-23T05:32:24.657Z,13.10
2023-04-23T05:32:57.670Z,13.20
2023-04-23T05:33:33.355Z,13.20
2023-04-23T05:34:09.208Z,13.10
2023-04-23T05:34:41.493Z,13.10
2023-04-23T05:35:13.712Z,13.10
2023-04-23T05:35:45.543Z,13.10
2023-04-23T05:36:18.561Z,13.10
2023-04-23T05:36:50.422Z,13.00
2023-04-23T05:37:22.561Z,13.00
2023-04-23T05:37:55.433Z,13.00
2023-04-23T05:38:27.298Z,13.10
2023-04-23T05:38:59.163Z,13.10
2023-04-23T05:39:32.042Z,13.10
2023-04-23T05:40:06.484Z,13.10
2023-04-23T05:40:38.737Z,13.10
2023-04-23T05:41:13.019Z,13.10
2023-04-23T05:41:44.884Z,13.10
2023-04-23T05:42:16.836Z,13.20
2023-04-23T05:42:50.031Z,13.10
2023-04-23T05:43:22.018Z,13.10
2023-04-23T05:43:53.847Z,13.10
2023-04-23T05:44:26.689Z,13.10
2023-04-23T05:44:58.544Z,13.20
2023-04-23T05:45:30.463Z,13.10
2023-04-23T05:46:04.553Z,13.10
2023-04-23T05:46:36.658Z,13.10
2023-04-23T05:47:10.030Z,13.10
2023-04-23T05:47:42.879Z,13.10
2023-04-23T05:48:15.073Z,13.10
2023-04-23T05:48:46.945Z,13.00
2023-04-23T05:49:19.748Z,13.00
2023-04-23T05:49:51.903Z,13.00
2023-04-23T05:50:23.832Z,12.90
2023-04-23T05:50:56.805Z,12.90
2023-04-23T05:51:29.040Z,12.90
2023-04-23T05:52:02.699Z,12.90
2023-04-23T05:52:37.268Z,12.90
2023-04-23T05:53:09.228Z,12.90
2023-04-23T05:53:42.105Z,12.90
2023-04-23T05:54:13.976Z,12.90
2023-04-23T05:54:45.841Z,12.90
2023-04-23T05:55:20.452Z,13.00
2023-04-23T05:55:52.429Z,13.00
2023-04-23T05:56:25.702Z,13.00
2023-04-23T05:56:58.652Z,13.00
2023-04-23T05:57:30.498Z,12.90
2023-04-23T05:58:03.433Z,12.90
2023-04-23T05:58:35.375Z,12.90
2023-04-23T05:59:07.423Z,12.90
2023-04-23T05:59:40.224Z,12.90
2023-04-23T06:00:13.175Z,12.90
2023-04-23T06:00:45.408Z,12.90
2023-04-23T06:01:18.439Z,12.90
2023-04-23T06:01:50.688Z,12.90
2023-04-23T06:02:24.734Z,12.90
2023-04-23T06:02:58.093Z,12.90
2023-04-23T06:03:30.720Z,13.00
2023-04-23T06:04:02.964Z,12.90
2023-04-23T06:04:36.257Z,12.80
2023-04-23T06:05:09.722Z,12.80
2023-04-23T06:05:43.309Z,12.90
2023-04-23T06:06:15.218Z,12.90
2023-04-23T06:06:47.078Z,12.90
2023-04-23T06:07:19.935Z,13.00
2023-04-23T06:07:51.795Z,12.90
2023-04-23T06:08:25.026Z,12.90
2023-04-23T06:08:58.179Z,12.90
2023-04-23T06:09:30.055Z,12.90
2023-04-23T06:10:02.006Z,12.90
2023-04-23T06:10:34.883Z,12.80
2023-04-23T06:11:07.721Z,12.80
2023-04-23T06:11:40.991Z,12.80
2023-04-23T06:12:12.951Z,12.80
2023-04-23T06:12:45.833Z,12.80
2023-04-23T06:13:17.779Z,12.80
2023-04-23T06:13:49.655Z,12.80
2023-04-23T06:14:22.527Z,12.70
2023-04-23T06:14:54.727Z,12.70
2023-04-23T06:15:27.624Z,12.80
2023-04-23T06:15:59.944Z,12.70
2023-04-23T06:16:31.843Z,12.80
2023-04-23T06:17:04.857Z,12.80
2023-04-23T06:17:37.225Z,12.80
2023-04-23T06:18:10.389Z,12.80
2023-04-23T06:18:42.417Z,12.80
2023-04-23T06:19:14.268Z,12.80
2023-04-23T06:19:47.086Z,12.80
2023-04-23T06:20:19.455Z,12.80
2023-04-23T06:20:51.512Z,12.80
2023-04-23T06:21:24.623Z,12.70
2023-04-23T06:21:56.532Z,12.70
2023-04-23T06:22:28.431Z,12.80
2023-04-23T06:23:02.631Z,12.70
2023-04-23T06:23:34.910Z,12.80
2023-04-23T06:24:08.013Z,12.70
2023-04-23T06:24:41.085Z,12.70
2023-04-23T06:25:13.166Z,12.70
2023-04-23T06:25:45.122Z,12.80
2023-04-23T06:26:18.450Z,12.80
2023-04-23T06:26:51.626Z,12.80
2023-04-23T06:27:23.483Z,12.80
2023-04-23T06:27:57.811Z,12.80
2023-04-23T06:28:29.684Z,12.70
2023-04-23T06:29:01.543Z,12.70
2023-04-23T06:29:34.396Z,12.70
2023-04-23T06:30:07.556Z,12.70
2023-04-23T06:30:39.435Z,12.70
2023-04-23T06:31:12.635Z,12.70
2023-04-23T06:31:44.749Z,12.70
2023-04-23T06:32:19.024Z,12.70
2023-04-23T06:32:53.613Z,12.60
2023-04-23T06:33:25.630Z,12.60
2023-04-23T06:33:57.444Z,12.60
2023-04-23T06:34:30.289Z,12.60
2023-04-23T06:35:02.607Z,12.60
2023-04-23T06:35:34.825Z,12.60
2023-04-23T06:36:10.830Z,12.60
2023-04-23T06:36:43.639Z,12.60
2023-04-23T06:37:15.586Z,12.60
2023-04-23T06:37:48.485Z,12.60
2023-04-23T06:38:22.841Z,12.60
2023-04-23T06:38:54.747Z,12.60
2023-04-23T06:39:27.598Z,12.60
2023-04-23T06:39:59.572Z,12.60
2023-04-23T06:40:31.824Z,12.60
2023-04-23T06:41:04.909Z,12.60
2023-04-23T06:41:36.830Z,12.60
2023-04-23T06:42:10.295Z,12.60
2023-04-23T06:42:43.292Z,12.70
2023-04-23T06:43:15.164Z,12.70
2023-04-23T06:43:48.231Z,12.80
2023-04-23T06:44:21.082Z,12.80
2023-04-23T06:44:52.988Z,12.80
2023-04-23T06:45:24.895Z,12.80
2023-04-23T06:45:57.788Z,12.80
2023-04-23T06:46:29.883Z,12.90
2023-04-23T06:47:01.863Z,12.90
2023-04-23T06:47:34.893Z,12.90
2023-04-23T06:48:07.195Z,12.90
2023-04-23T06:48:39.064Z,12.90
2023-04-23T06:49:12.157Z,12.90
2023-04-23T06:49:44.040Z,12.90
2023-04-23T06:50:16.109Z,12.90
2023-04-23T06:50:49.177Z,12.90
2023-04-23T06:51:21.244Z,13.00
2023-04-23T06:51:53.093Z,12.90
2023-04-23T06:52:26.249Z,12.90
2023-04-23T06:52:58.162Z,12.90
2023-04-23T06:53:30.270Z,12.90
2023-04-23T06:54:03.125Z,13.00
2023-04-23T06:54:35.038Z,13.00
2023-04-23T06:55:08.369Z,13.00
2023-04-23T06:55:41.197Z,13.00
2023-04-23T06:56:13.401Z,13.00
2023-04-23T06:56:45.235Z,13.00
2023-04-23T06:57:19.573Z,13.00
2023-04-23T06:57:51.496Z,13.10
2023-04-23T06:58:27.313Z,13.10
2023-04-23T06:59:00.147Z,13.10
2023-04-23T06:59:32.005Z,13.20
2023-04-23T07:00:06.486Z,13.20
2023-04-23T07:00:39.408Z,13.20
2023-04-23T07:01:11.525Z,13.20